B Gas Commander — 9HA2927 — position and weather

sailwx.info

Track history (hours):
 
Tides and Currents Weather Stations Pressure Air Temp Water Temp Dewpoint Dewpoint Depression Visibility Wind Speed Wind Dir Waves Ship Positions

B Gas Commander

Last reported at 2017-Oct-17 14:07 UTC. Time now 2017-Oct-17 18:54 UTC.
Position N 38°05' E 010°55'.

Length 74 m; draft 4.2 m.

Type: Tanker. MMSI: 256792000.

Date/timePositionNaut miles runAvg speedWind from/ knotsBaromVisibWave heightAir tempDewpointWater temp
2017-Oct-17 14:07N 38°05' E 010°55'110.8
2017-Oct-17 14:00N 38°05' E 010°54'510.9
2017-Oct-17 13:30N 38°07' E 010°47'610.9
2017-Oct-17 12:59N 38°09' E 010°41'510.8
2017-Oct-17 12:30N 38°11' E 010°34'510.5
2017-Oct-17 12:00N 38°13' E 010°28'610.6
2017-Oct-17 11:25N 38°15' E 010°21'510.7
2017-Oct-17 10:56N 38°16' E 010°14'6810.3
2017-Oct-17 04:18N 38°40' E 008°53'310.3
2017-Oct-17 04:00N 38°41' E 008°49'510.3
2017-Oct-17 03:31N 38°43' E 008°43'36 9.6
2017-Oct-16 23:47N 39°06' E 008°09'510.8
2017-Oct-16 23:16N 39°11' E 008°05'310.8
2017-Oct-16 23:00N 39°14' E 008°03'510.7
2017-Oct-16 22:30N 39°18' E 007°60'611.0
2017-Oct-16 21:58N 39°23' E 007°55'811.3
2017-Oct-16 21:16N 39°30' E 007°50'19710.9
2017-Oct-16 03:07N 42°21' E 005°41'110.6
2017-Oct-16 03:00N 42°22' E 005°40'510.6
2017-Oct-16 02:30N 42°27' E 005°36'810.7
2017-Oct-16 01:44N 42°34' E 005°31'210.8
2017-Oct-16 01:31N 42°36' E 005°29'1310.9
2017-Oct-16 00:19N 42°47' E 005°20'310.8
2017-Oct-16 00:00N 42°50' E 005°18'510.8
2017-Oct-15 23:30N 42°55' E 005°14'1310.7
2017-Oct-15 22:20N 43°06' E 005°05'510.7
2017-Oct-15 21:52N 43°10' E 005°02'510.7
2017-Oct-15 21:25N 43°15' E 005°00'410.6
2017-Oct-15 21:00N 43°19' E 004°59'5 9.2
2017-Oct-15 20:30N 43°23' E 004°59'3 6.7
2017-Oct-15 20:00N 43°24' E 005°03'1 0.5
2017-Oct-15 17:43N 43°25' E 005°05'0 0.0
2017-Oct-15 17:29N 43°25' E 005°05'0 0.0
2017-Oct-15 16:59N 43°25' E 005°05'0 0.0
2017-Oct-15 15:44N 43°25' E 005°05'0 0.0
2017-Oct-15 15:29N 43°25' E 005°05'0 0.0
2017-Oct-15 14:57N 43°25' E 005°05'0 0.0
2017-Oct-15 13:54N 43°25' E 005°05'4 0.2
2017-Oct-14 15:09N 43°27' E 005°09'4 7.0
2017-Oct-14 14:35N 43°25' E 005°05'1 7.6
2017-Oct-14 14:26N 43°24' E 005°03'3 7.0
2017-Oct-14 14:00N 43°24' E 004°59'1 2.3
2017-Oct-14 13:30N 43°24' E 004°58'0 0.3
2017-Oct-14 13:00N 43°24' E 004°58'0 0.0
2017-Oct-14 12:30N 43°24' E 004°58'0 0.0
2017-Oct-14 12:00N 43°24' E 004°58'0 0.0
2017-Oct-14 11:30N 43°24' E 004°58'0 0.0
2017-Oct-14 11:00N 43°24' E 004°58'0 0.0
2017-Oct-14 10:30N 43°24' E 004°58'0 0.0
2017-Oct-14 09:58N 43°24' E 004°58'0 0.0
2017-Oct-14 09:30N 43°24' E 004°58'0 0.0
2017-Oct-14 09:00N 43°24' E 004°58'0 0.0
2017-Oct-14 08:30N 43°24' E 004°58'0 0.0
2017-Oct-14 08:01N 43°24' E 004°58'0 0.0
2017-Oct-14 07:31N 43°24' E 004°58'0 0.0
2017-Oct-14 07:01N 43°24' E 004°58'0 0.6
2017-Oct-14 06:30N 43°23' E 004°58'3 6.3
2017-Oct-14 06:00N 43°20' E 004°59'5 8.7
2017-Oct-14 05:27N 43°16' E 005°01'317 9.9
2017-Oct-12 21:17N 38°43' E 008°35'511.0
2017-Oct-12 20:52N 38°41' E 008°40'510.9
2017-Oct-12 20:26N 38°40' E 008°46'25510.8
2017-Oct-11 20:53N 36°57' E 013°42'410.4
2017-Oct-11 20:30N 36°55' E 013°46'510.1
2017-Oct-11 20:00N 36°53' E 013°52'5 9.8
2017-Oct-11 19:30N 36°51' E 013°58'5 9.7
2017-Oct-11 19:00N 36°49' E 014°03'5 9.3
2017-Oct-11 18:30N 36°47' E 014°09'510.0
2017-Oct-11 18:00N 36°45' E 014°14'5 9.9
2017-Oct-11 17:31N 36°44' E 014°20'510.3
2017-Oct-11 17:00N 36°41' E 014°26'  
Track history (hours):
 
Tides and Currents Weather Stations Pressure Air Temp Water Temp Dewpoint Dewpoint Depression Visibility Wind Speed Wind Dir Waves Ship Positions

B Gas Commander

Last reported at 2017-Oct-17 14:07 UTC. Time now 2017-Oct-17 18:54 UTC.
Position N 38°05' E 010°55'.

Length 74 m; draft 4.2 m.

Type: Tanker. MMSI: 256792000.

Date/timePositionNaut miles runAvg speedWind from/ knotsBaromVisibWave heightAir tempDewpointWater temp
2017-Oct-17 14:07N 38°05' E 010°55'110.8
2017-Oct-17 14:00N 38°05' E 010°54'510.9
2017-Oct-17 13:30N 38°07' E 010°47'610.9
2017-Oct-17 12:59N 38°09' E 010°41'510.8
2017-Oct-17 12:30N 38°11' E 010°34'510.5
2017-Oct-17 12:00N 38°13' E 010°28'610.6
2017-Oct-17 11:25N 38°15' E 010°21'510.7
2017-Oct-17 10:56N 38°16' E 010°14'6810.3
2017-Oct-17 04:18N 38°40' E 008°53'310.3
2017-Oct-17 04:00N 38°41' E 008°49'510.3
2017-Oct-17 03:31N 38°43' E 008°43'36 9.6
2017-Oct-16 23:47N 39°06' E 008°09'510.8
2017-Oct-16 23:16N 39°11' E 008°05'310.8
2017-Oct-16 23:00N 39°14' E 008°03'510.7
2017-Oct-16 22:30N 39°18' E 007°60'611.0
2017-Oct-16 21:58N 39°23' E 007°55'811.3
2017-Oct-16 21:16N 39°30' E 007°50'19710.9
2017-Oct-16 03:07N 42°21' E 005°41'110.6
2017-Oct-16 03:00N 42°22' E 005°40'510.6
2017-Oct-16 02:30N 42°27' E 005°36'810.7
2017-Oct-16 01:44N 42°34' E 005°31'210.8
2017-Oct-16 01:31N 42°36' E 005°29'1310.9
2017-Oct-16 00:19N 42°47' E 005°20'310.8
2017-Oct-16 00:00N 42°50' E 005°18'510.8
2017-Oct-15 23:30N 42°55' E 005°14'1310.7
2017-Oct-15 22:20N 43°06' E 005°05'510.7
2017-Oct-15 21:52N 43°10' E 005°02'510.7
2017-Oct-15 21:25N 43°15' E 005°00'410.6
2017-Oct-15 21:00N 43°19' E 004°59'5 9.2
2017-Oct-15 20:30N 43°23' E 004°59'3 6.7
2017-Oct-15 20:00N 43°24' E 005°03'1 0.5
2017-Oct-15 17:43N 43°25' E 005°05'0 0.0
2017-Oct-15 17:29N 43°25' E 005°05'0 0.0
2017-Oct-15 16:59N 43°25' E 005°05'0 0.0
2017-Oct-15 15:44N 43°25' E 005°05'0 0.0
2017-Oct-15 15:29N 43°25' E 005°05'0 0.0
2017-Oct-15 14:57N 43°25' E 005°05'0 0.0
2017-Oct-15 13:54N 43°25' E 005°05'4 0.2
2017-Oct-14 15:09N 43°27' E 005°09'4 7.0
2017-Oct-14 14:35N 43°25' E 005°05'1 7.6
2017-Oct-14 14:26N 43°24' E 005°03'3 7.0
2017-Oct-14 14:00N 43°24' E 004°59'1 2.3
2017-Oct-14 13:30N 43°24' E 004°58'0 0.3
2017-Oct-14 13:00N 43°24' E 004°58'0 0.0
2017-Oct-14 12:30N 43°24' E 004°58'0 0.0
2017-Oct-14 12:00N 43°24' E 004°58'0 0.0
2017-Oct-14 11:30N 43°24' E 004°58'0 0.0
2017-Oct-14 11:00N 43°24' E 004°58'0 0.0
2017-Oct-14 10:30N 43°24' E 004°58'0 0.0
2017-Oct-14 09:58N 43°24' E 004°58'0 0.0
2017-Oct-14 09:30N 43°24' E 004°58'0 0.0
2017-Oct-14 09:00N 43°24' E 004°58'0 0.0
2017-Oct-14 08:30N 43°24' E 004°58'0 0.0
2017-Oct-14 08:01N 43°24' E 004°58'0 0.0
2017-Oct-14 07:31N 43°24' E 004°58'0 0.0
2017-Oct-14 07:01N 43°24' E 004°58'0 0.6
2017-Oct-14 06:30N 43°23' E 004°58'3 6.3
2017-Oct-14 06:00N 43°20' E 004°59'5 8.7
2017-Oct-14 05:27N 43°16' E 005°01'317 9.9
2017-Oct-12 21:17N 38°43' E 008°35'511.0
2017-Oct-12 20:52N 38°41' E 008°40'510.9
2017-Oct-12 20:26N 38°40' E 008°46'25510.8
2017-Oct-11 20:53N 36°57' E 013°42'410.4
2017-Oct-11 20:30N 36°55' E 013°46'510.1
2017-Oct-11 20:00N 36°53' E 013°52'5 9.8
2017-Oct-11 19:30N 36°51' E 013°58'5 9.7
2017-Oct-11 19:00N 36°49' E 014°03'5 9.3
2017-Oct-11 18:30N 36°47' E 014°09'510.0
2017-Oct-11 18:00N 36°45' E 014°14'5 9.9
2017-Oct-11 17:31N 36°44' E 014°20'510.3
2017-Oct-11 17:00N 36°41' E 014°26'  

Dump ship's entire track history